Lady Ann Magee — 9HA2775 — position and weather

sailwx.info

Track history (hours):
 
Tides and Currents Weather Stations Pressure Air Temp Water Temp Dewpoint Dewpoint Depression Visibility Wind Speed Wind Dir Waves Ship Positions

Lady Ann Magee

Last reported at 2018-May-24 16:04 UTC. Time now 2018-May-26 08:00 UTC.
Position N 43°44' E 007°25'.

Length 50 m; draft 3.2 m.

Type: Pleasure craft. MMSI: 215660000.

Date/timePositionNaut miles runAvg speedWind from/ knotsBaromVisibWave heightAir tempDewpointWater temp
2018-May-24 16:04N 43°44' E 007°25'0 0.0
2018-May-24 15:52N 43°44' E 007°25'  
2018-May-18 14:15N 43°44' E 007°25'9 8.5
2018-May-18 13:12N 43°37' E 007°18'313.1
2018-May-18 13:00N 43°35' E 007°16'712.9
2018-May-18 12:30N 43°30' E 007°10'612.4
2018-May-18 12:01N 43°26' E 007°04'53 9.8
2018-May-18 06:38N 43°05' E 005°57'1 7.1
2018-May-18 06:30N 43°05' E 005°56'2 4.5
2018-May-18 06:00N 43°06' E 005°53'0 0.0
2018-May-18 05:30N 43°06' E 005°53'0 0.0
2018-May-18 05:00N 43°06' E 005°53'0 0.0
2018-May-18 04:30N 43°06' E 005°53'0 0.0
2018-May-18 04:00N 43°06' E 005°53'0 0.0
2018-May-18 03:30N 43°06' E 005°53'0 0.0
2018-May-18 03:00N 43°06' E 005°53'0 0.0
2018-May-18 02:30N 43°06' E 005°53'0 0.0
2018-May-18 02:00N 43°06' E 005°53'0 0.0
2018-May-18 01:30N 43°06' E 005°53'0 0.0
2018-May-18 01:00N 43°06' E 005°53'0 0.0
2018-May-18 00:30N 43°06' E 005°53'0 0.0
2018-May-18 00:00N 43°06' E 005°53'0 0.0
2018-May-17 23:30N 43°06' E 005°53'0 0.0
2018-May-17 23:00N 43°06' E 005°53'0 0.0
2018-May-17 22:30N 43°06' E 005°53'0 0.0
2018-May-17 22:00N 43°06' E 005°53'0 0.0
2018-May-17 21:30N 43°06' E 005°53'0 0.0
2018-May-17 21:00N 43°06' E 005°53'0 0.0
2018-May-17 20:30N 43°06' E 005°53'0 0.0
2018-May-17 20:00N 43°06' E 005°53'0 0.0
2018-May-17 19:27N 43°06' E 005°53'0 0.0
2018-May-17 19:00N 43°06' E 005°53'0 0.0
2018-May-17 18:30N 43°06' E 005°53'0 0.0
2018-May-17 18:00N 43°06' E 005°53'0 0.0
2018-May-17 17:30N 43°06' E 005°53'0 0.0
2018-May-17 16:57N 43°06' E 005°53'0 0.0
2018-May-17 16:30N 43°06' E 005°53'0 0.0
2018-May-17 16:00N 43°06' E 005°53'0 0.0
2018-May-17 15:30N 43°06' E 005°53'0 0.0
2018-May-17 15:00N 43°06' E 005°53'0 0.0
2018-May-17 14:30N 43°06' E 005°53'0 0.0
2018-May-17 14:00N 43°06' E 005°53'0 0.0
2018-May-17 13:30N 43°06' E 005°53'0 0.0
2018-May-17 13:00N 43°06' E 005°53'0 0.0
2018-May-17 12:30N 43°06' E 005°53'0 0.0
2018-May-17 12:00N 43°06' E 005°53'0 0.0
2018-May-17 11:30N 43°06' E 005°53'0 0.0
2018-May-17 10:57N 43°06' E 005°53'0 0.0
2018-May-17 10:30N 43°06' E 005°53'0 0.0
2018-May-17 09:51N 43°06' E 005°53'0 0.0
2018-May-17 09:30N 43°06' E 005°53'0 0.0
2018-May-17 09:00N 43°06' E 005°53'0 0.0
2018-May-17 08:27N 43°06' E 005°53'0 0.0
2018-May-17 08:00N 43°06' E 005°53'0 0.0
2018-May-17 07:30N 43°06' E 005°53'0 0.0
2018-May-17 07:00N 43°06' E 005°53'0 0.0
2018-May-17 06:30N 43°06' E 005°53'0 0.0
2018-May-17 06:00N 43°06' E 005°53'0 0.0
2018-May-17 05:30N 43°06' E 005°53'0 0.0
2018-May-17 05:00N 43°06' E 005°53'0 0.0
2018-May-17 04:30N 43°06' E 005°53'0 0.0
2018-May-17 03:57N 43°06' E 005°53'0 0.0
2018-May-17 03:30N 43°06' E 005°53'0 0.0
2018-May-17 03:00N 43°06' E 005°53'0 0.0
2018-May-17 02:30N 43°06' E 005°53'0 0.0
2018-May-17 02:00N 43°06' E 005°53'0 0.0
2018-May-17 01:30N 43°06' E 005°53'0 0.0
2018-May-17 01:00N 43°06' E 005°53'0 0.0
2018-May-17 00:30N 43°06' E 005°53'0 0.0
2018-May-17 00:00N 43°06' E 005°53'0 0.0
2018-May-16 23:30N 43°06' E 005°53'0 0.0
2018-May-16 23:00N 43°06' E 005°53'0 0.0
2018-May-16 22:30N 43°06' E 005°53'0 0.0
2018-May-16 22:00N 43°06' E 005°53'0 0.0
2018-May-16 21:30N 43°06' E 005°53'0 0.0
2018-May-16 21:00N 43°06' E 005°53'0 0.0
2018-May-16 20:30N 43°06' E 005°53'0 0.0
2018-May-16 20:00N 43°06' E 005°53'0 0.0
2018-May-16 19:30N 43°06' E 005°53'0 0.0
2018-May-16 19:00N 43°06' E 005°53'0 0.0
2018-May-16 18:30N 43°06' E 005°53'0 0.0
2018-May-16 18:00N 43°06' E 005°53'0 0.0
2018-May-16 17:30N 43°06' E 005°53'0 0.0
2018-May-16 17:00N 43°06' E 005°53'0 0.0
2018-May-16 16:30N 43°06' E 005°53'0 0.0
2018-May-16 15:57N 43°06' E 005°53'0 0.0
2018-May-16 15:30N 43°06' E 005°53'0 0.0
2018-May-16 15:00N 43°06' E 005°53'0 0.0
2018-May-16 14:27N 43°06' E 005°53'0 0.0
2018-May-16 14:00N 43°06' E 005°53'0 0.0
2018-May-16 13:30N 43°06' E 005°53'0 0.0
2018-May-16 13:00N 43°06' E 005°53'0 0.0
2018-May-16 12:30N 43°06' E 005°53'0 0.0
2018-May-16 12:00N 43°06' E 005°53'0 0.0
2018-May-16 11:30N 43°06' E 005°53'0 0.0
2018-May-16 11:00N 43°06' E 005°53'0 0.0
2018-May-16 10:30N 43°06' E 005°53'0 0.0
2018-May-16 10:00N 43°06' E 005°53'0 0.0
2018-May-16 09:30N 43°06' E 005°53'0 0.0
2018-May-16 09:00N 43°06' E 005°53'0 0.0
2018-May-16 08:30N 43°06' E 005°53'0 0.0
2018-May-16 08:00N 43°06' E 005°53'0 0.0
2018-May-16 07:30N 43°06' E 005°53'0 0.0
2018-May-16 07:00N 43°06' E 005°53'0 0.0
2018-May-16 06:30N 43°06' E 005°53'0 0.0
2018-May-16 06:00N 43°06' E 005°53'0 0.0
2018-May-16 05:30N 43°06' E 005°53'0 0.0
2018-May-16 05:00N 43°06' E 005°53'0 0.0
2018-May-16 04:30N 43°06' E 005°53'0 0.0
2018-May-16 04:00N 43°06' E 005°53'0 0.0
2018-May-16 03:30N 43°06' E 005°53'0 0.0
2018-May-16 02:57N 43°06' E 005°53'0 0.0
2018-May-16 02:30N 43°06' E 005°53'0 0.0
2018-May-16 02:00N 43°06' E 005°53'0 0.0
2018-May-16 01:30N 43°06' E 005°53'0 0.0
2018-May-16 00:57N 43°06' E 005°53'0 0.0
2018-May-16 00:30N 43°06' E 005°53'0 0.0
2018-May-16 00:00N 43°06' E 005°53'0 0.0
2018-May-15 23:30N 43°06' E 005°53'0 0.0
2018-May-15 23:00N 43°06' E 005°53'0 0.0
2018-May-15 22:30N 43°06' E 005°53'0 0.0
2018-May-15 22:00N 43°06' E 005°53'0 0.0
2018-May-15 21:30N 43°06' E 005°53'0 0.0
2018-May-15 21:00N 43°06' E 005°53'0 0.0
2018-May-15 20:30N 43°06' E 005°53'0 0.0
2018-May-15 20:00N 43°06' E 005°53'0 0.0
2018-May-15 19:30N 43°06' E 005°53'0 0.0
2018-May-15 19:00N 43°06' E 005°53'0 0.0
2018-May-15 18:30N 43°06' E 005°53'0 0.0
2018-May-15 18:00N 43°06' E 005°53'0 0.0
2018-May-15 17:30N 43°06' E 005°53'0 0.0
2018-May-15 17:00N 43°06' E 005°53'0 0.0
2018-May-15 16:30N 43°06' E 005°53'0 0.0
2018-May-15 16:00N 43°06' E 005°53'0 0.0
2018-May-15 15:30N 43°06' E 005°53'0 0.0
2018-May-15 15:00N 43°06' E 005°53'0 0.0
2018-May-15 14:30N 43°06' E 005°53'0 0.0
2018-May-15 13:57N 43°06' E 005°53'0 0.0
2018-May-15 13:30N 43°06' E 005°53'0 0.0
2018-May-15 13:00N 43°06' E 005°53'0 0.0
2018-May-15 12:30N 43°06' E 005°53'0 0.0
2018-May-15 12:00N 43°06' E 005°53'0 0.0
2018-May-15 11:30N 43°06' E 005°53'0 0.0
2018-May-15 11:00N 43°06' E 005°53'0 0.0
2018-May-15 10:30N 43°06' E 005°53'0 0.0
2018-May-15 10:00N 43°06' E 005°53'0 0.0
2018-May-15 09:30N 43°06' E 005°53'0 0.0
2018-May-15 09:00N 43°06' E 005°53'0 0.0
2018-May-15 08:30N 43°06' E 005°53'0 0.0
2018-May-15 07:57N 43°06' E 005°53'0 0.0
2018-May-15 07:30N 43°06' E 005°53'0 0.0
2018-May-15 07:00N 43°06' E 005°53'0 0.0
2018-May-15 06:30N 43°06' E 005°53'0 0.0
2018-May-15 05:57N 43°06' E 005°53'0 0.0
2018-May-15 05:30N 43°06' E 005°53'0 0.0
2018-May-15 05:00N 43°06' E 005°53'0 0.0
2018-May-15 04:30N 43°06' E 005°53'0 0.0
2018-May-15 03:57N 43°06' E 005°53'0 0.0
2018-May-15 03:30N 43°06' E 005°53'0 0.0
2018-May-15 03:00N 43°06' E 005°53'0 0.0
2018-May-15 02:30N 43°06' E 005°53'0 0.0
2018-May-15 02:00N 43°06' E 005°53'0 0.0
2018-May-15 01:30N 43°06' E 005°53'0 0.0
2018-May-15 00:54N 43°06' E 005°53'0 0.0
2018-May-15 00:30N 43°06' E 005°53'0 0.0
2018-May-15 00:00N 43°06' E 005°53'0 0.0
2018-May-14 23:27N 43°06' E 005°53'0 0.0
2018-May-14 23:00N 43°06' E 005°53'0 0.0
2018-May-14 22:30N 43°06' E 005°53'0 0.0
2018-May-14 22:00N 43°06' E 005°53'0 0.0
2018-May-14 21:30N 43°06' E 005°53'0 0.0
2018-May-14 21:00N 43°06' E 005°53'0 0.0
2018-May-14 20:30N 43°06' E 005°53'0 0.0
2018-May-14 20:00N 43°06' E 005°53'0 0.0
2018-May-14 19:30N 43°06' E 005°53'0 0.0
2018-May-14 19:00N 43°06' E 005°53'0 0.0
2018-May-14 18:30N 43°06' E 005°53'0 0.0
2018-May-14 18:00N 43°06' E 005°53'0 0.0
2018-May-14 17:30N 43°06' E 005°53'0 0.0
2018-May-14 17:00N 43°06' E 005°53'0 0.0
2018-May-14 16:30N 43°06' E 005°53'  
Track history (hours):
 
Tides and Currents Weather Stations Pressure Air Temp Water Temp Dewpoint Dewpoint Depression Visibility Wind Speed Wind Dir Waves Ship Positions

Lady Ann Magee

Last reported at 2018-May-24 16:04 UTC. Time now 2018-May-26 08:00 UTC.
Position N 43°44' E 007°25'.

Length 50 m; draft 3.2 m.

Type: Pleasure craft. MMSI: 215660000.

Date/timePositionNaut miles runAvg speedWind from/ knotsBaromVisibWave heightAir tempDewpointWater temp
2018-May-24 16:04N 43°44' E 007°25'0 0.0
2018-May-24 15:52N 43°44' E 007°25'  
2018-May-18 14:15N 43°44' E 007°25'9 8.5
2018-May-18 13:12N 43°37' E 007°18'313.1
2018-May-18 13:00N 43°35' E 007°16'712.9
2018-May-18 12:30N 43°30' E 007°10'612.4
2018-May-18 12:01N 43°26' E 007°04'53 9.8
2018-May-18 06:38N 43°05' E 005°57'1 7.1
2018-May-18 06:30N 43°05' E 005°56'2 4.5
2018-May-18 06:00N 43°06' E 005°53'0 0.0
2018-May-18 05:30N 43°06' E 005°53'0 0.0
2018-May-18 05:00N 43°06' E 005°53'0 0.0
2018-May-18 04:30N 43°06' E 005°53'0 0.0
2018-May-18 04:00N 43°06' E 005°53'0 0.0
2018-May-18 03:30N 43°06' E 005°53'0 0.0
2018-May-18 03:00N 43°06' E 005°53'0 0.0
2018-May-18 02:30N 43°06' E 005°53'0 0.0
2018-May-18 02:00N 43°06' E 005°53'0 0.0
2018-May-18 01:30N 43°06' E 005°53'0 0.0
2018-May-18 01:00N 43°06' E 005°53'0 0.0
2018-May-18 00:30N 43°06' E 005°53'0 0.0
2018-May-18 00:00N 43°06' E 005°53'0 0.0
2018-May-17 23:30N 43°06' E 005°53'0 0.0
2018-May-17 23:00N 43°06' E 005°53'0 0.0
2018-May-17 22:30N 43°06' E 005°53'0 0.0
2018-May-17 22:00N 43°06' E 005°53'0 0.0
2018-May-17 21:30N 43°06' E 005°53'0 0.0
2018-May-17 21:00N 43°06' E 005°53'0 0.0
2018-May-17 20:30N 43°06' E 005°53'0 0.0
2018-May-17 20:00N 43°06' E 005°53'0 0.0
2018-May-17 19:27N 43°06' E 005°53'0 0.0
2018-May-17 19:00N 43°06' E 005°53'0 0.0
2018-May-17 18:30N 43°06' E 005°53'0 0.0
2018-May-17 18:00N 43°06' E 005°53'0 0.0
2018-May-17 17:30N 43°06' E 005°53'0 0.0
2018-May-17 16:57N 43°06' E 005°53'0 0.0
2018-May-17 16:30N 43°06' E 005°53'0 0.0
2018-May-17 16:00N 43°06' E 005°53'0 0.0
2018-May-17 15:30N 43°06' E 005°53'0 0.0
2018-May-17 15:00N 43°06' E 005°53'0 0.0
2018-May-17 14:30N 43°06' E 005°53'0 0.0
2018-May-17 14:00N 43°06' E 005°53'0 0.0
2018-May-17 13:30N 43°06' E 005°53'0 0.0
2018-May-17 13:00N 43°06' E 005°53'0 0.0
2018-May-17 12:30N 43°06' E 005°53'0 0.0
2018-May-17 12:00N 43°06' E 005°53'0 0.0
2018-May-17 11:30N 43°06' E 005°53'0 0.0
2018-May-17 10:57N 43°06' E 005°53'0 0.0
2018-May-17 10:30N 43°06' E 005°53'0 0.0
2018-May-17 09:51N 43°06' E 005°53'0 0.0
2018-May-17 09:30N 43°06' E 005°53'0 0.0
2018-May-17 09:00N 43°06' E 005°53'0 0.0
2018-May-17 08:27N 43°06' E 005°53'0 0.0
2018-May-17 08:00N 43°06' E 005°53'0 0.0
2018-May-17 07:30N 43°06' E 005°53'0 0.0
2018-May-17 07:00N 43°06' E 005°53'0 0.0
2018-May-17 06:30N 43°06' E 005°53'0 0.0
2018-May-17 06:00N 43°06' E 005°53'0 0.0
2018-May-17 05:30N 43°06' E 005°53'0 0.0
2018-May-17 05:00N 43°06' E 005°53'0 0.0
2018-May-17 04:30N 43°06' E 005°53'0 0.0
2018-May-17 03:57N 43°06' E 005°53'0 0.0
2018-May-17 03:30N 43°06' E 005°53'0 0.0
2018-May-17 03:00N 43°06' E 005°53'0 0.0
2018-May-17 02:30N 43°06' E 005°53'0 0.0
2018-May-17 02:00N 43°06' E 005°53'0 0.0
2018-May-17 01:30N 43°06' E 005°53'0 0.0
2018-May-17 01:00N 43°06' E 005°53'0 0.0
2018-May-17 00:30N 43°06' E 005°53'0 0.0
2018-May-17 00:00N 43°06' E 005°53'0 0.0
2018-May-16 23:30N 43°06' E 005°53'0 0.0
2018-May-16 23:00N 43°06' E 005°53'0 0.0
2018-May-16 22:30N 43°06' E 005°53'0 0.0
2018-May-16 22:00N 43°06' E 005°53'0 0.0
2018-May-16 21:30N 43°06' E 005°53'0 0.0
2018-May-16 21:00N 43°06' E 005°53'0 0.0
2018-May-16 20:30N 43°06' E 005°53'0 0.0
2018-May-16 20:00N 43°06' E 005°53'0 0.0
2018-May-16 19:30N 43°06' E 005°53'0 0.0
2018-May-16 19:00N 43°06' E 005°53'0 0.0
2018-May-16 18:30N 43°06' E 005°53'0 0.0
2018-May-16 18:00N 43°06' E 005°53'0 0.0
2018-May-16 17:30N 43°06' E 005°53'0 0.0
2018-May-16 17:00N 43°06' E 005°53'0 0.0
2018-May-16 16:30N 43°06' E 005°53'0 0.0
2018-May-16 15:57N 43°06' E 005°53'0 0.0
2018-May-16 15:30N 43°06' E 005°53'0 0.0
2018-May-16 15:00N 43°06' E 005°53'0 0.0
2018-May-16 14:27N 43°06' E 005°53'0 0.0
2018-May-16 14:00N 43°06' E 005°53'0 0.0
2018-May-16 13:30N 43°06' E 005°53'0 0.0
2018-May-16 13:00N 43°06' E 005°53'0 0.0
2018-May-16 12:30N 43°06' E 005°53'0 0.0
2018-May-16 12:00N 43°06' E 005°53'0 0.0
2018-May-16 11:30N 43°06' E 005°53'0 0.0
2018-May-16 11:00N 43°06' E 005°53'0 0.0
2018-May-16 10:30N 43°06' E 005°53'0 0.0
2018-May-16 10:00N 43°06' E 005°53'0 0.0
2018-May-16 09:30N 43°06' E 005°53'0 0.0
2018-May-16 09:00N 43°06' E 005°53'0 0.0
2018-May-16 08:30N 43°06' E 005°53'0 0.0
2018-May-16 08:00N 43°06' E 005°53'0 0.0
2018-May-16 07:30N 43°06' E 005°53'0 0.0
2018-May-16 07:00N 43°06' E 005°53'0 0.0
2018-May-16 06:30N 43°06' E 005°53'0 0.0
2018-May-16 06:00N 43°06' E 005°53'0 0.0
2018-May-16 05:30N 43°06' E 005°53'0 0.0
2018-May-16 05:00N 43°06' E 005°53'0 0.0
2018-May-16 04:30N 43°06' E 005°53'0 0.0
2018-May-16 04:00N 43°06' E 005°53'0 0.0
2018-May-16 03:30N 43°06' E 005°53'0 0.0
2018-May-16 02:57N 43°06' E 005°53'0 0.0
2018-May-16 02:30N 43°06' E 005°53'0 0.0
2018-May-16 02:00N 43°06' E 005°53'0 0.0
2018-May-16 01:30N 43°06' E 005°53'0 0.0
2018-May-16 00:57N 43°06' E 005°53'0 0.0
2018-May-16 00:30N 43°06' E 005°53'0 0.0
2018-May-16 00:00N 43°06' E 005°53'0 0.0
2018-May-15 23:30N 43°06' E 005°53'0 0.0
2018-May-15 23:00N 43°06' E 005°53'0 0.0
2018-May-15 22:30N 43°06' E 005°53'0 0.0
2018-May-15 22:00N 43°06' E 005°53'0 0.0
2018-May-15 21:30N 43°06' E 005°53'0 0.0
2018-May-15 21:00N 43°06' E 005°53'0 0.0
2018-May-15 20:30N 43°06' E 005°53'0 0.0
2018-May-15 20:00N 43°06' E 005°53'0 0.0
2018-May-15 19:30N 43°06' E 005°53'0 0.0
2018-May-15 19:00N 43°06' E 005°53'0 0.0
2018-May-15 18:30N 43°06' E 005°53'0 0.0
2018-May-15 18:00N 43°06' E 005°53'0 0.0
2018-May-15 17:30N 43°06' E 005°53'0 0.0
2018-May-15 17:00N 43°06' E 005°53'0 0.0
2018-May-15 16:30N 43°06' E 005°53'0 0.0
2018-May-15 16:00N 43°06' E 005°53'0 0.0
2018-May-15 15:30N 43°06' E 005°53'0 0.0
2018-May-15 15:00N 43°06' E 005°53'0 0.0
2018-May-15 14:30N 43°06' E 005°53'0 0.0
2018-May-15 13:57N 43°06' E 005°53'0 0.0
2018-May-15 13:30N 43°06' E 005°53'0 0.0
2018-May-15 13:00N 43°06' E 005°53'0 0.0
2018-May-15 12:30N 43°06' E 005°53'0 0.0
2018-May-15 12:00N 43°06' E 005°53'0 0.0
2018-May-15 11:30N 43°06' E 005°53'0 0.0
2018-May-15 11:00N 43°06' E 005°53'0 0.0
2018-May-15 10:30N 43°06' E 005°53'0 0.0
2018-May-15 10:00N 43°06' E 005°53'0 0.0
2018-May-15 09:30N 43°06' E 005°53'0 0.0
2018-May-15 09:00N 43°06' E 005°53'0 0.0
2018-May-15 08:30N 43°06' E 005°53'0 0.0
2018-May-15 07:57N 43°06' E 005°53'0 0.0
2018-May-15 07:30N 43°06' E 005°53'0 0.0
2018-May-15 07:00N 43°06' E 005°53'0 0.0
2018-May-15 06:30N 43°06' E 005°53'0 0.0
2018-May-15 05:57N 43°06' E 005°53'0 0.0
2018-May-15 05:30N 43°06' E 005°53'0 0.0
2018-May-15 05:00N 43°06' E 005°53'0 0.0
2018-May-15 04:30N 43°06' E 005°53'0 0.0
2018-May-15 03:57N 43°06' E 005°53'0 0.0
2018-May-15 03:30N 43°06' E 005°53'0 0.0
2018-May-15 03:00N 43°06' E 005°53'0 0.0
2018-May-15 02:30N 43°06' E 005°53'0 0.0
2018-May-15 02:00N 43°06' E 005°53'0 0.0
2018-May-15 01:30N 43°06' E 005°53'0 0.0
2018-May-15 00:54N 43°06' E 005°53'0 0.0
2018-May-15 00:30N 43°06' E 005°53'0 0.0
2018-May-15 00:00N 43°06' E 005°53'0 0.0
2018-May-14 23:27N 43°06' E 005°53'0 0.0
2018-May-14 23:00N 43°06' E 005°53'0 0.0
2018-May-14 22:30N 43°06' E 005°53'0 0.0
2018-May-14 22:00N 43°06' E 005°53'0 0.0
2018-May-14 21:30N 43°06' E 005°53'0 0.0
2018-May-14 21:00N 43°06' E 005°53'0 0.0
2018-May-14 20:30N 43°06' E 005°53'0 0.0
2018-May-14 20:00N 43°06' E 005°53'0 0.0
2018-May-14 19:30N 43°06' E 005°53'0 0.0
2018-May-14 19:00N 43°06' E 005°53'0 0.0
2018-May-14 18:30N 43°06' E 005°53'0 0.0
2018-May-14 18:00N 43°06' E 005°53'0 0.0
2018-May-14 17:30N 43°06' E 005°53'0 0.0
2018-May-14 17:00N 43°06' E 005°53'0 0.0
2018-May-14 16:30N 43°06' E 005°53'  

Dump ship's entire track history